Terminal Aerodrome Forecast
Issued by NWS Brownsville, TX

Home | Current Version | Previous Version | Text Only | Print | Product List | Glossary On
Versions: 1 2 3 4 5 6 7 8 9 10 11 12 13 14 15 16 17 18 19 20 21 22
000
FTUS44 KBRO 040521
TAFMFE
TAF
KMFE 040521Z 0406/0506 14005KT P6SM FEW030
      TEMPO 0410/0414 4SM BR BKN020
     FM041500 15017G23KT P6SM SCT030 SCT050
     FM050200 14012KT P6SM SKC=

USA.gov is the U.S. government's official web portal to all federal, state and local government web resources and services.